Huvudsida
METAR-TAF:

METAR-TAF

Flygplatser :

Cam Ranhs internationella flygplats

Cam Ranh, Vietnam

latitud: 11-59-53N, longitud: 109-13-10E, höjd: 12 m

Aktuellt väderrapport

Denna rapport gjordes för 51 minuter sedan, klockan 19:00 UTC
Vind 2 kt från nordväst
Temperatur 24°C
Fuktighet 94%
Tryck 1013 hPa
Sikt 10 km eller mer
Få moln på en höjd av 1500 ft

METAR: VVCR 221900Z 32002KT 9999 FEW015 24/23 Q1013 NOSIG

Tid: 02:51 (19:51 UTC)

Väderprognos

Denna rapport gjordes för 2 timmar och 51 minuter sedan, klockan 17:00 UTC
Prognos gäller från 22 kl. 18 UTC till 23 kl. 18 UTC
Vind 4 kt från nordväst
Sikt 10 km eller mer
Få moln på en höjd av 1500 ft
Blir
från 23 kl. 03 UTC till 23 kl. 04 UTC
Vind 12 kt från ost/nordost
Blir
från 23 kl. 12 UTC till 23 kl. 13 UTC
Vind 7 kt från nord/nordväst

TAF: VVCR 221700Z 2218/2318 32004KT 9999 FEW015 BECMG 2303/2304 06012KT BECMG 2312/2313 34007KT

Aktuella väderrapporter och prognoser från 4000 flygplatser (METAR- och TAF-rapporter).

De tillgängliga stationerna syns som gula och röda prickar på kartan.

För musen över prickarna för att se namnen på stationerna.

Klicka sedan för att få väderrapporter och prognoser.

För att ändra kartan: Klicka på de gröna knapparna med ett svart kors på för att zooma in; den gröna knappen med ett streck på för att zooma ut; eller på de gröna pilarna för angränsande kartor.


METAR-TAF: